Time;durP1;ratioP1;P1;durP2;ratioP2;P2;SDS_P1;SDS_P2;PMS_P1;PMS_P2;Temp;Humidity;BMP_temperature;BMP_pressure;BME280_temperature;BME280_humidity;BME280_pressure;Samples;Min_cycle;Max_cycle;Signal;HPM_P1;HPM_P2
2022/11/15 00:00:51;;;;;;;;;3.00;3.00;;;;;13.43;100.00;100742.97;5063650;28;45548;-76
2022/11/15 00:03:18;;;;;;;;;5.67;3.67;;;;;13.44;100.00;100744.75;5058011;28;46061;-76
2022/11/15 00:05:43;;;;;;;;;6.00;5.00;;;;;13.46;100.00;100752.69;5060190;28;45547;-76
2022/11/15 00:08:09;;;;;;;;;3.33;3.33;;;;;13.44;100.00;100758.00;5052880;27;48386;-76
2022/11/15 00:10:35;;;;;;;;;9.00;5.33;;;;;13.42;100.00;100751.78;5055230;28;45430;-76
2022/11/15 00:13:04;;;;;;;;;5.33;4.00;;;;;13.36;100.00;100746.50;5060758;27;45445;-76
2022/11/15 00:15:30;;;;;;;;;4.67;3.33;;;;;13.32;100.00;100737.69;5067503;27;45495;-76
2022/11/15 00:17:55;;;;;;;;;4.00;4.00;;;;;13.29;100.00;100736.81;5061511;28;57739;-76
2022/11/15 00:20:20;;;;;;;;;4.67;4.33;;;;;13.28;100.00;100735.06;5056987;28;60163;-77
2022/11/15 00:22:46;;;;;;;;;4.67;4.00;;;;;13.26;100.00;100737.72;5061368;28;45543;-76
2022/11/15 00:25:11;;;;;;;;;9.67;4.00;;;;;13.22;100.00;100732.41;5062627;28;55476;-76
2022/11/15 00:27:36;;;;;;;;;4.67;4.67;;;;;13.20;100.00;100731.47;5060237;28;45967;-77
2022/11/15 00:30:02;;;;;;;;;4.00;4.00;;;;;13.15;100.00;100725.28;5056219;28;46916;-76
2022/11/15 00:32:31;;;;;;;;;5.00;4.00;;;;;13.10;100.00;100725.28;5053072;28;45482;-76
2022/11/15 00:34:57;;;;;;;;;5.00;5.00;;;;;13.09;100.00;100729.72;5064820;28;46702;-76
2022/11/15 00:37:22;;;;;;;;;3.00;3.00;;;;;13.07;100.00;100718.25;5059269;28;66736;-77
2022/11/15 00:39:47;;;;;;;;;5.00;3.00;;;;;13.06;100.00;100720.91;5065303;28;62695;-76
2022/11/15 00:42:13;;;;;;;;;4.00;4.00;;;;;13.03;100.00;100718.25;5068461;28;48532;-77
2022/11/15 00:44:38;;;;;;;;;4.00;2.00;;;;;13.04;100.00;100718.25;5061474;27;60737;-76
2022/11/15 00:47:03;;;;;;;;;3.00;2.00;;;;;13.02;100.00;100709.41;5064275;28;61460;-76
2022/11/15 00:49:29;;;;;;;;;2.67;2.00;;;;;13.05;100.00;100721.81;5066406;28;64872;-76
2022/11/15 00:51:54;;;;;;;;;3.00;2.00;;;;;13.03;100.00;100716.47;5051808;28;60671;-76
2022/11/15 00:54:19;;;;;;;;;5.00;3.00;;;;;13.02;100.00;100714.72;5064673;27;61687;-76
2022/11/15 00:56:45;;;;;;;;;2.00;2.00;;;;;12.99;100.00;100704.09;5067056;28;46421;-75
2022/11/15 00:59:10;;;;;;;;;2.00;2.00;;;;;13.00;100.00;100700.59;5068083;28;45441;-76
2022/11/15 01:01:35;;;;;;;;;3.00;2.00;;;;;12.98;100.00;100691.75;5060217;28;59540;-76
2022/11/15 01:04:01;;;;;;;;;3.00;2.00;;;;;12.98;100.00;100701.47;5067724;28;53690;-76
2022/11/15 01:06:26;;;;;;;;;2.00;2.00;;;;;12.95;100.00;100698.84;5068665;27;63721;-77
2022/11/15 01:08:51;;;;;;;;;1.33;1.33;;;;;12.93;100.00;100698.81;5069100;28;63932;-76
2022/11/15 01:11:17;;;;;;;;;2.67;1.00;;;;;12.93;100.00;100698.81;5063037;27;45426;-76
2022/11/15 01:13:42;;;;;;;;;1.00;1.00;;;;;12.90;100.00;100687.34;5069022;27;59513;-76
2022/11/15 01:16:14;;;;;;;;;1.33;1.33;;;;;12.90;100.00;100693.53;5081371;27;61391;-76
2022/11/15 01:18:39;;;;;;;;;2.00;2.00;;;;;12.88;100.00;100684.69;5073859;27;45875;-76
2022/11/15 01:21:09;;;;;;;;;1.00;1.00;;;;;12.85;100.00;100682.06;5066729;28;45504;-76
2022/11/15 01:23:35;;;;;;;;;1.33;1.33;;;;;12.87;100.00;100685.56;5067424;27;45734;-76
2022/11/15 01:26:05;;;;;;;;;3.33;3.00;;;;;12.86;100.00;100678.50;5062464;28;45704;-75
2022/11/15 01:28:35;;;;;;;;;2.00;1.00;;;;;12.82;100.00;100674.97;5057068;28;45428;-76
2022/11/15 01:31:05;;;;;;;;;2.00;2.00;;;;;12.77;100.00;100674.09;5053799;28;45795;-76
2022/11/15 01:33:35;;;;;;;;;3.00;1.67;;;;;12.72;100.00;100664.38;5197117;22;45985;-76
2022/11/15 01:36:04;;;;;;;;;2.00;1.00;;;;;12.71;100.00;100674.09;5074333;27;46589;-77
2022/11/15 01:38:30;;;;;;;;;2.00;1.00;;;;;12.71;100.00;100662.63;5068415;28;45653;-77
2022/11/15 01:40:55;;;;;;;;;2.67;1.00;;;;;12.68;100.00;100660.88;5067355;27;61634;-77
2022/11/15 01:43:30;;;;;;;;;1.00;1.00;;;;;12.66;100.00;100652.03;5073891;27;45466;-76
2022/11/15 01:46:04;;;;;;;;;2.00;1.00;;;;;12.64;100.00;100652.94;5072328;27;46720;-76
2022/11/15 01:48:34;;;;;;;;;1.00;1.00;;;;;12.61;100.00;100643.19;5068358;28;45528;-76
2022/11/15 01:51:07;;;;;;;;;2.00;0.00;;;;;12.59;100.00;100651.16;5060510;28;45660;-76
2022/11/15 01:53:33;;;;;;;;;1.00;1.00;;;;;12.57;100.00;100636.16;5054452;28;45574;-77
2022/11/15 01:56:02;;;;;;;;;2.00;1.33;;;;;12.56;100.00;100623.78;5069509;27;46716;-76
2022/11/15 01:58:28;;;;;;;;;0.67;0.67;;;;;12.54;100.00;100626.44;5083792;27;45519;-76
2022/11/15 02:00:53;;;;;;;;;2.00;0.33;;;;;12.51;100.00;100621.13;5092374;27;63764;-76
2022/11/15 02:03:18;;;;;;;;;3.33;2.33;;;;;12.51;100.00;100618.47;5076144;27;45581;-76
2022/11/15 02:05:44;;;;;;;;;1.00;1.00;;;;;12.50;100.00;100618.47;5063666;27;67437;-77
2022/11/15 02:08:19;;;;;;;;;1.00;1.00;;;;;12.45;100.00;100610.53;5047736;28;56490;-77
2022/11/15 02:10:45;;;;;;;;;1.67;1.00;;;;;12.45;100.00;100607.00;5064893;27;45593;-76
2022/11/15 02:13:11;;;;;;;;;1.00;0.00;;;;;12.40;100.00;100608.78;5067654;27;45489;-76
2022/11/15 02:16:04;;;;;;;;;2.33;1.00;;;;;12.41;100.00;100613.19;5067000;27;64818;-77
2022/11/15 02:18:37;;;;;;;;;1.00;1.00;;;;;12.38;100.00;100595.53;5077225;27;45581;-76
2022/11/15 02:21:14;;;;;;;;;0.33;0.33;;;;;12.36;100.00;100602.63;5084787;27;46105;-76
2022/11/15 02:24:04;;;;;;;;;4.00;1.00;;;;;12.34;100.00;100599.06;5066117;28;45540;-77
2022/11/15 02:27:17;;;;;;;;;1.00;1.00;;;;;12.31;100.00;100588.50;5063427;28;46415;-76
2022/11/15 02:29:54;;;;;;;;;0.33;0.00;;;;;12.28;100.00;100586.72;5069837;27;45514;-77
2022/11/15 02:32:40;;;;;;;;;0.67;0.67;;;;;12.24;100.00;100587.59;5067670;27;45426;-76
2022/11/15 02:35:08;;;;;;;;;1.00;1.00;;;;;12.22;100.00;100572.59;5067102;27;45442;-76
2022/11/15 02:37:44;;;;;;;;;2.33;1.00;;;;;12.19;100.00;100578.75;5068469;28;46167;-76
2022/11/15 02:40:17;;;;;;;;;1.00;1.00;;;;;12.16;100.00;100588.50;5088840;27;45689;-76
2022/11/15 02:46:22;;;;;;;;;2.00;1.00;;;;;12.11;100.00;100559.38;5067792;27;45598;-76
2022/11/15 02:48:48;;;;;;;;;2.00;1.00;;;;;12.12;100.00;100554.94;5062913;28;46375;-76
2022/11/15 02:51:15;;;;;;;;;1.00;1.00;;;;;12.10;100.00;100557.59;5068518;27;62703;-76
2022/11/15 02:53:40;;;;;;;;;2.00;2.00;;;;;12.06;100.00;100545.25;5061155;28;55318;-76
2022/11/15 02:56:09;;;;;;;;;1.00;1.00;;;;;12.07;100.00;100542.59;5071513;27;46391;-76
2022/11/15 02:58:40;;;;;;;;;2.00;1.00;;;;;12.05;100.00;100532.91;5062446;27;46979;-76
2022/11/15 03:01:30;;;;;;;;;3.67;2.00;;;;;12.03;100.00;100524.94;5067893;28;45577;-76
2022/11/15 03:04:14;;;;;;;;;1.00;1.00;;;;;12.06;100.00;100532.03;5074555;27;45832;-76
2022/11/15 03:06:49;;;;;;;;;3.00;1.67;;;;;12.04;100.00;100526.72;5065883;27;45726;-77
2022/11/15 03:09:50;;;;;;;;;4.33;1.33;;;;;12.04;100.00;100516.16;5064477;27;46324;-76
2022/11/15 03:12:27;;;;;;;;;2.33;1.33;;;;;12.04;100.00;100521.44;5060833;27;46480;-76
2022/11/15 03:15:13;;;;;;;;;2.33;1.00;;;;;12.06;100.00;100519.66;5069099;27;45591;-76
2022/11/15 03:17:50;;;;;;;;;3.00;1.67;;;;;12.07;100.00;100518.78;5063411;27;45964;-76
2022/11/15 03:20:17;;;;;;;;;2.00;2.00;;;;;12.13;100.00;100511.72;5067529;27;46623;-76
2022/11/15 03:22:44;;;;;;;;;1.67;1.67;;;;;12.13;100.00;100506.44;5067644;27;45605;-76
2022/11/15 03:25:15;;;;;;;;;3.67;2.00;;;;;12.13;100.00;100503.78;5067697;27;45510;-76
2022/11/15 03:27:43;;;;;;;;;2.00;2.00;;;;;12.11;100.00;100503.78;5055840;28;45499;-76
2022/11/15 03:30:09;;;;;;;;;3.33;1.33;;;;;12.13;100.00;100511.72;5059391;28;46791;-76
2022/11/15 03:32:42;;;;;;;;;2.33;1.00;;;;;12.10;100.00;100507.31;5072623;27;45554;-76
2022/11/15 03:35:12;;;;;;;;;3.00;1.00;;;;;12.08;100.00;100506.41;5067102;27;45817;-76
2022/11/15 03:37:49;;;;;;;;;4.67;1.33;;;;;12.05;100.00;100503.78;5062941;27;45603;-76
2022/11/15 03:40:16;;;;;;;;;2.33;1.00;;;;;12.04;100.00;100500.28;5082349;27;47235;-76
2022/11/15 03:43:00;;;;;;;;;1.67;1.33;;;;;12.05;100.00;100495.84;5068662;27;45617;-76
2022/11/15 03:45:30;;;;;;;;;3.00;1.00;;;;;12.02;100.00;100496.72;5072441;27;45439;-76
2022/11/15 03:48:00;;;;;;;;;5.00;2.00;;;;;11.99;100.00;100494.09;5069980;27;45890;-76
2022/11/15 03:50:25;;;;;;;;;1.00;1.00;;;;;12.00;100.00;100502.91;5060936;27;46078;-76
2022/11/15 03:52:53;;;;;;;;;2.00;2.00;;;;;11.96;100.00;100491.44;5065879;27;45540;-76
2022/11/15 03:55:20;;;;;;;;;2.33;2.00;;;;;11.95;100.00;100491.44;5072865;27;45624;-76
2022/11/15 03:57:49;;;;;;;;;4.00;2.00;;;;;11.95;100.00;100487.03;5056397;27;45424;-77
2022/11/15 04:00:14;;;;;;;;;2.00;2.00;;;;;11.94;100.00;100490.56;5056020;27;47205;-77
2022/11/15 04:02:40;;;;;;;;;1.67;1.67;;;;;11.91;100.00;100472.03;5055246;28;45640;-76
2022/11/15 04:05:05;;;;;;;;;1.00;1.00;;;;;11.91;100.00;100482.63;5064861;28;54996;-76
2022/11/15 04:07:31;;;;;;;;;5.00;2.00;;;;;11.93;100.00;100474.66;5066367;28;45963;-76
2022/11/15 04:10:02;;;;;;;;;4.00;1.00;;;;;11.92;100.00;100475.56;5073796;27;65365;-77
2022/11/15 04:12:31;;;;;;;;;2.33;2.33;;;;;11.92;100.00;100483.50;5071182;27;45542;-76
2022/11/15 04:15:07;;;;;;;;;1.67;1.67;;;;;11.91;100.00;100479.97;5076569;27;45827;-76
2022/11/15 04:17:37;;;;;;;;;1.00;1.00;;;;;11.88;100.00;100477.34;5062658;28;45604;-76
2022/11/15 04:25:39;;;;;;;;;2.00;2.00;;;;;11.87;100.00;100464.97;5086528;27;45641;-77
2022/11/15 04:28:04;;;;;;;;;4.00;1.00;;;;;11.90;100.00;100464.09;5050113;27;45506;-77
2022/11/15 04:30:29;;;;;;;;;2.33;2.33;;;;;11.92;100.00;100464.97;5048531;28;47834;-76
2022/11/15 04:32:55;;;;;;;;;4.67;1.00;;;;;11.93;100.00;100462.34;5064401;28;61038;-76
2022/11/15 04:35:20;;;;;;;;;3.00;1.33;;;;;11.91;100.00;100464.09;5067021;28;45565;-76
2022/11/15 04:37:45;;;;;;;;;3.00;1.67;;;;;11.89;100.00;100463.22;5051679;28;58431;-77
2022/11/15 04:40:11;;;;;;;;;2.00;1.00;;;;;11.88;100.00;100444.69;5048145;28;66350;-76
2022/11/15 04:42:36;;;;;;;;;2.00;2.00;;;;;11.87;100.00;100438.53;5049610;27;65475;-77
2022/11/15 04:45:01;;;;;;;;;4.00;2.00;;;;;11.86;100.00;100435.88;5070730;28;45614;-77
2022/11/15 04:47:27;;;;;;;;;3.00;3.00;;;;;11.83;100.00;100434.13;5052109;27;46261;-76
2022/11/15 04:49:53;;;;;;;;;1.00;1.00;;;;;11.76;100.00;100429.69;5052831;28;45957;-76
2022/11/15 04:52:18;;;;;;;;;2.00;2.00;;;;;11.80;100.00;100436.75;5048459;27;54511;-76
2022/11/15 04:54:44;;;;;;;;;4.67;2.00;;;;;11.79;100.00;100433.22;5061128;27;45497;-76
2022/11/15 04:57:09;;;;;;;;;2.67;2.00;;;;;11.79;100.00;100424.41;5055733;27;46087;-77
2022/11/15 04:59:35;;;;;;;;;4.33;3.00;;;;;11.78;100.00;100427.94;5074621;27;64255;-76
2022/11/15 05:02:00;;;;;;;;;2.00;2.00;;;;;11.76;100.00;100419.09;5074427;27;60436;-77
2022/11/15 05:04:26;;;;;;;;;9.67;2.00;;;;;11.75;100.00;100406.75;5057701;28;56360;-76
2022/11/15 05:06:51;;;;;;;;;1.00;1.00;;;;;11.73;100.00;100414.69;5076305;27;45570;-76
2022/11/15 05:09:18;;;;;;;;;1.67;1.67;;;;;11.72;100.00;100414.72;5034095;28;47688;-77
2022/11/15 05:11:44;;;;;;;;;4.00;3.00;;;;;11.72;100.00;100407.66;5051499;28;45488;-76
2022/11/15 05:14:09;;;;;;;;;3.67;3.00;;;;;11.72;100.00;100422.66;5059530;27;46101;-77
2022/11/15 05:16:35;;;;;;;;;1.00;0.67;;;;;11.71;100.00;100421.75;5035633;28;45465;-76
2022/11/15 05:19:01;;;;;;;;;1.00;1.00;;;;;11.70;100.00;100408.53;5054272;27;46736;-77
2022/11/15 05:21:26;;;;;;;;;3.33;2.33;;;;;11.71;100.00;100412.94;5053358;27;45473;-76
2022/11/15 05:23:52;;;;;;;;;2.00;2.00;;;;;11.71;100.00;100423.50;5071012;27;57839;-76
2022/11/15 05:26:17;;;;;;;;;1.00;1.00;;;;;11.70;100.00;100408.53;5072525;27;56826;-77
2022/11/15 05:28:43;;;;;;;;;3.00;2.00;;;;;11.72;100.00;100422.66;5033672;28;47492;-76
2022/11/15 05:31:13;;;;;;;;;0.33;0.33;;;;;11.74;100.00;100408.53;5069343;27;65279;-76
2022/11/15 05:33:40;;;;;;;;;1.33;1.33;;;;;11.74;100.00;100408.53;5048029;28;45611;-76
2022/11/15 05:36:11;;;;;;;;;1.67;1.67;;;;;11.76;100.00;100413.81;5030850;27;45715;-76
2022/11/15 05:38:37;;;;;;;;;3.00;1.33;;;;;11.82;100.00;100416.47;5068271;27;46175;-76
2022/11/15 05:41:03;;;;;;;;;2.00;2.00;;;;;11.82;100.00;100408.53;5052696;28;56333;-75
2022/11/15 05:43:31;;;;;;;;;1.67;1.67;;;;;11.87;100.00;100419.13;5050316;28;46045;-76
2022/11/15 05:45:57;;;;;;;;;2.33;1.33;;;;;11.89;100.00;100423.53;5067862;28;45780;-75
2022/11/15 05:48:23;;;;;;;;;2.33;1.00;;;;;11.90;100.00;100406.78;5050512;28;60767;-77
2022/11/15 05:50:48;;;;;;;;;5.00;1.00;;;;;11.94;100.00;100405.03;5066542;27;60240;-76
2022/11/15 05:53:16;;;;;;;;;2.00;2.00;;;;;11.96;100.00;100401.47;5072719;27;53140;-76
2022/11/15 05:55:41;;;;;;;;;3.00;2.00;;;;;11.98;100.00;100394.41;5060792;27;45560;-79
2022/11/15 05:58:07;;;;;;;;;5.00;2.00;;;;;12.00;100.00;100387.38;5057164;27;48761;-77
2022/11/15 06:00:32;;;;;;;;;2.67;2.67;;;;;12.00;100.00;100390.00;5033981;28;46074;-77
2022/11/15 06:02:58;;;;;;;;;2.00;2.00;;;;;12.01;100.00;100382.94;5051964;28;64055;-76
2022/11/15 06:05:23;;;;;;;;;3.67;2.67;;;;;12.04;100.00;100375.91;5074131;27;45762;-78
2022/11/15 06:07:48;;;;;;;;;1.00;1.00;;;;;12.05;100.00;100372.34;5072991;27;53619;-78
2022/11/15 06:10:14;;;;;;;;;3.00;3.00;;;;;12.06;100.00;100376.75;5070203;27;45341;-79
2022/11/15 06:12:39;;;;;;;;;3.00;1.00;;;;;12.09;100.00;100372.34;5026958;28;45407;-78
2022/11/15 06:15:05;;;;;;;;;2.00;2.00;;;;;12.07;100.00;100367.94;5047425;27;55999;-78
2022/11/15 06:17:30;;;;;;;;;4.67;2.00;;;;;12.11;100.00;100362.66;5064612;28;46297;-76
2022/11/15 06:19:55;;;;;;;;;6.00;4.00;;;;;12.10;100.00;100348.53;5049594;27;65273;-76
2022/11/15 06:22:21;;;;;;;;;3.00;2.67;;;;;12.14;100.00;100354.69;5049856;28;64903;-75
2022/11/15 06:24:46;;;;;;;;;5.33;4.33;;;;;12.15;100.00;100343.22;5067224;28;50324;-76
2022/11/15 06:27:12;;;;;;;;;3.33;2.00;;;;;12.14;100.00;100337.03;5068484;28;46341;-75
2022/11/15 06:29:37;;;;;;;;;3.00;3.00;;;;;12.18;100.00;100341.44;5053894;28;45513;-76
2022/11/15 06:32:02;;;;;;;;;4.33;3.33;;;;;12.19;100.00;100334.38;5068330;28;45712;-76
2022/11/15 06:34:28;;;;;;;;;5.00;3.00;;;;;12.16;100.00;100334.41;5056373;28;45557;-76
2022/11/15 06:36:53;;;;;;;;;4.00;1.00;;;;;12.17;100.00;100337.03;5062373;28;58357;-75
2022/11/15 06:39:18;;;;;;;;;3.00;3.00;;;;;12.17;100.00;100320.28;5068806;27;58908;-76
2022/11/15 06:41:44;;;;;;;;;4.00;3.00;;;;;12.16;100.00;100315.88;5070823;27;46583;-76
2022/11/15 06:44:09;;;;;;;;;3.33;3.00;;;;;12.11;100.00;100313.25;5069738;27;61179;-77
2022/11/15 06:46:34;;;;;;;;;3.00;3.00;;;;;12.13;100.00;100321.16;5059099;27;68472;-76
2022/11/15 06:49:00;;;;;;;;;6.00;2.33;;;;;12.11;100.00;100309.72;5064743;27;50043;-76
2022/11/15 06:51:25;;;;;;;;;4.67;2.00;;;;;12.09;100.00;100306.19;5068480;28;57720;-75
2022/11/15 06:53:50;;;;;;;;;7.00;3.67;;;;;12.05;100.00;100300.03;5068304;27;45645;-78
2022/11/15 06:56:16;;;;;;;;;3.67;3.67;;;;;12.03;100.00;100294.72;5066334;27;65243;-79
2022/11/15 06:58:41;;;;;;;;;3.67;3.00;;;;;12.01;100.00;100291.22;5068634;27;45580;-79
2022/11/15 07:01:10;;;;;;;;;4.00;4.00;;;;;11.99;100.00;100276.25;5054512;28;45736;-79
2022/11/15 07:03:40;;;;;;;;;11.00;4.00;;;;;12.00;100.00;100272.72;5071371;27;45925;-79
2022/11/15 07:06:06;;;;;;;;;3.00;3.00;;;;;11.98;100.00;100275.34;5069732;28;47930;-78
2022/11/15 07:08:32;;;;;;;;;4.00;4.00;;;;;12.02;100.00;100277.09;5065189;27;45562;-79
2022/11/15 07:10:59;;;;;;;;;4.00;4.00;;;;;12.03;100.00;100272.69;5071930;27;47668;-79
2022/11/15 07:13:25;;;;;;;;;2.33;2.33;;;;;12.07;100.00;100288.53;5062575;27;45701;-79
2022/11/15 07:15:51;;;;;;;;;4.00;2.00;;;;;12.09;100.00;100295.59;5087646;27;47564;-80
2022/11/15 07:18:16;;;;;;;;;4.00;3.00;;;;;12.09;100.00;100299.16;5047849;27;45593;-80
2022/11/15 07:20:41;;;;;;;;;3.00;3.00;;;;;12.09;100.00;100296.50;5069107;28;56320;-80
2022/11/15 07:23:07;;;;;;;;;7.00;4.00;;;;;12.14;100.00;100304.41;5053574;28;51359;-79
2022/11/15 07:25:32;;;;;;;;;3.67;3.00;;;;;12.15;100.00;100301.75;5051987;28;48442;-79
2022/11/15 07:27:58;;;;;;;;;2.33;2.00;;;;;12.20;100.00;100294.69;5070596;27;45694;-79
2022/11/15 07:30:24;;;;;;;;;4.33;3.33;;;;;12.23;100.00;100299.06;5055478;28;45471;-79
2022/11/15 07:32:57;;;;;;;;;3.33;2.00;;;;;12.21;100.00;100290.28;5052615;28;45518;-79
2022/11/15 07:35:24;;;;;;;;;2.00;2.00;;;;;12.27;100.00;100287.59;5072269;27;45903;-77
2022/11/15 07:38:08;;;;;;;;;3.67;2.33;;;;;12.31;100.00;100278.75;5052927;28;45524;-78
2022/11/15 07:40:33;;;;;;;;;3.67;3.67;;;;;12.33;100.00;100263.72;5063667;27;45565;-79
2022/11/15 07:43:06;;;;;;;;;5.00;3.00;;;;;12.37;100.00;100257.53;5069739;27;54508;-78
2022/11/15 07:45:35;;;;;;;;;3.67;3.33;;;;;12.41;100.00;100263.69;5065833;28;46795;-78
2022/11/15 07:48:00;;;;;;;;;7.33;3.33;;;;;12.43;100.00;100249.56;5064423;28;45896;-79
2022/11/15 07:50:26;;;;;;;;;5.33;3.00;;;;;12.47;100.00;100246.00;5051959;28;46106;-80
2022/11/15 07:52:55;;;;;;;;;3.00;3.00;;;;;12.49;100.00;100238.03;5070671;28;45495;-79
2022/11/15 07:55:22;;;;;;;;;6.33;2.33;;;;;12.48;100.00;100234.53;5066629;27;48447;-80
2022/11/15 07:57:47;;;;;;;;;2.67;2.00;;;;;12.48;100.00;100223.94;5066528;27;45558;-79
2022/11/15 08:00:13;;;;;;;;;2.00;2.00;;;;;12.51;100.00;100220.38;5070247;28;54170;-79
2022/11/15 08:02:39;;;;;;;;;3.00;3.00;;;;;12.52;100.00;100215.09;5073901;27;45659;-80
2022/11/15 08:05:04;;;;;;;;;3.00;2.00;;;;;12.55;100.00;100225.63;5070404;27;46141;-79
2022/11/15 08:07:30;;;;;;;;;3.00;2.00;;;;;12.57;100.00;100221.22;5052321;27;45494;-79
2022/11/15 08:09:56;;;;;;;;;5.00;3.00;;;;;12.61;100.00;100234.44;5070118;27;45454;-79
2022/11/15 08:12:22;;;;;;;;;2.00;2.00;;;;;12.64;100.00;100227.34;5075006;27;45712;-79
2022/11/15 08:14:47;;;;;;;;;3.00;3.00;;;;;12.67;100.00;100223.78;5055574;28;47615;-80
2022/11/15 08:17:13;;;;;;;;;5.00;2.00;;;;;12.71;100.00;100228.19;5074986;27;45946;-79
2022/11/15 08:19:39;;;;;;;;;3.00;3.00;;;;;12.73;100.00;100239.63;5081195;27;45636;-78
2022/11/15 08:22:04;;;;;;;;;4.33;3.00;;;;;12.77;100.00;100231.66;5052646;28;46182;-79
2022/11/15 08:24:29;;;;;;;;;3.33;2.00;;;;;12.79;100.00;100231.66;5053146;28;53413;-79
2022/11/15 08:26:55;;;;;;;;;3.00;2.00;;;;;12.81;100.00;100230.75;5049953;28;65737;-79
2022/11/15 08:29:20;;;;;;;;;4.00;3.00;;;;;12.88;100.00;100233.34;5083701;27;56605;-78
2022/11/15 08:31:45;;;;;;;;;3.00;2.00;;;;;12.87;100.00;100219.22;5076916;27;45641;-80
2022/11/15 08:34:11;;;;;;;;;4.00;4.00;;;;;12.88;100.00;100215.69;5067726;27;45710;-79
2022/11/15 08:36:36;;;;;;;;;5.00;3.00;;;;;12.89;100.00;100213.91;5061508;27;45561;-79
2022/11/15 08:39:01;;;;;;;;;5.00;3.00;;;;;12.92;100.00;100217.41;5052409;28;52443;-78
2022/11/15 08:41:32;;;;;;;;;3.67;2.67;;;;;12.91;100.00;100197.13;5070911;27;45610;-80
2022/11/15 08:43:57;;;;;;;;;3.67;3.67;;;;;12.96;100.00;100208.56;5069214;28;46886;-79
2022/11/15 08:46:22;;;;;;;;;3.00;2.00;;;;;13.01;100.00;100200.56;5073320;27;45565;-79
2022/11/15 08:48:48;;;;;;;;;4.00;3.00;;;;;13.07;100.00;100208.47;5068384;28;58552;-79
2022/11/15 08:51:13;;;;;;;;;7.67;3.67;;;;;13.11;100.00;100205.78;5050587;28;45620;-78
2022/11/15 08:53:39;;;;;;;;;5.67;2.33;;;;;13.19;100.00;100199.50;5066513;27;65457;-79
2022/11/15 08:56:08;;;;;;;;;4.33;2.67;;;;;13.23;100.00;100180.06;5069836;27;64504;-79
2022/11/15 08:58:34;;;;;;;;;6.00;3.00;;;;;13.27;100.00;100181.78;5089384;27;45552;-80
2022/11/15 09:00:59;;;;;;;;;2.00;2.00;;;;;13.32;100.00;100172.03;5093521;27;45505;-79
2022/11/15 09:03:25;;;;;;;;;3.67;3.67;;;;;13.35;100.00;100171.97;5088415;27;60463;-80
2022/11/15 09:05:57;;;;;;;;;2.00;2.00;;;;;13.35;100.00;100164.88;5077920;27;55074;-80
2022/11/15 09:08:23;;;;;;;;;2.00;2.00;;;;;13.40;100.00;100170.16;5052129;28;45480;-80
2022/11/15 09:10:48;;;;;;;;;3.67;2.33;;;;;13.44;100.00;100163.03;5072826;28;45517;-80
2022/11/15 09:13:14;;;;;;;;;3.00;3.00;;;;;13.47;100.00;100160.34;5078997;27;45473;-78
2022/11/15 09:15:39;;;;;;;;;5.33;2.00;;;;;13.49;100.00;100162.09;5054004;28;46349;-79
2022/11/15 09:18:05;;;;;;;;;2.00;2.00;;;;;13.51;100.00;100162.06;5071906;28;51303;-79
2022/11/15 09:20:30;;;;;;;;;2.00;2.00;;;;;13.52;100.00;100161.16;5072671;27;58840;-80
2022/11/15 09:23:00;;;;;;;;;4.00;2.00;;;;;13.52;100.00;100162.03;5055037;28;47545;-80
2022/11/15 09:25:26;;;;;;;;;2.00;2.00;;;;;13.53;100.00;100162.91;5054241;28;46024;-79
2022/11/15 09:27:51;;;;;;;;;2.00;2.00;;;;;13.55;100.00;100164.66;5074071;27;45490;-80
2022/11/15 09:30:17;;;;;;;;;4.00;3.00;;;;;13.59;100.00;100160.22;5074880;27;53622;-79
2022/11/15 09:32:42;;;;;;;;;3.00;1.67;;;;;13.61;100.00;100161.94;5064016;28;48603;-80
2022/11/15 09:35:07;;;;;;;;;2.00;2.00;;;;;13.62;100.00;100153.06;5072212;27;57321;-80
2022/11/15 09:37:33;;;;;;;;;10.33;7.00;;;;;13.65;100.00;100159.25;5072675;28;45526;-80
2022/11/15 09:39:58;;;;;;;;;4.00;2.67;;;;;13.66;100.00;100168.97;5074693;27;45462;-79
2022/11/15 09:43:05;;;;;;;;;4.00;2.00;;;;;13.68;100.00;100164.50;5070852;28;69279;-79
2022/11/15 09:45:46;;;;;;;;;2.00;0.00;;;;;13.68;100.00;100154.78;5035112;28;46280;-80
2022/11/15 09:48:33;;;;;;;;;1.67;1.67;;;;;13.68;100.00;100154.78;5072116;27;45453;-79
2022/11/15 09:50:59;;;;;;;;;2.33;0.67;;;;;13.65;100.00;100146.88;5072781;28;45692;-77
2022/11/15 09:53:32;;;;;;;;;1.33;1.33;;;;;13.69;100.00;100150.34;5068677;27;66870;-79
2022/11/15 09:56:22;;;;;;;;;2.00;2.00;;;;;13.69;100.00;100148.59;5063542;28;46287;-78
2022/11/15 09:58:58;;;;;;;;;2.00;2.00;;;;;13.70;100.00;100144.16;5069692;27;45491;-79
2022/11/15 10:01:58;;;;;;;;;2.67;1.00;;;;;13.71;100.00;100141.47;5070976;27;45936;-79
2022/11/15 10:04:25;;;;;;;;;3.00;1.67;;;;;13.71;100.00;100133.53;5054474;27;47605;-79
2022/11/15 10:07:19;;;;;;;;;1.33;1.33;;;;;13.72;100.00;100127.31;5062751;28;46332;-79
2022/11/15 10:10:11;;;;;;;;;4.00;2.33;;;;;13.75;100.00;100131.72;5075279;27;45847;-80
2022/11/15 10:12:44;;;;;;;;;3.00;1.33;;;;;13.76;100.00;100113.13;5083893;27;45540;-78
2022/11/15 10:15:14;;;;;;;;;1.00;1.00;;;;;13.74;100.00;100108.72;5059570;28;48419;-79
2022/11/15 10:18:06;;;;;;;;;1.33;1.33;;;;;13.78;100.00;100110.44;5071900;27;45766;-78
2022/11/15 10:20:38;;;;;;;;;3.67;2.33;;;;;13.78;100.00;100099.81;5076201;27;45533;-79
2022/11/15 10:23:11;;;;;;;;;2.33;2.33;;;;;13.81;100.00;100084.75;5066189;28;45783;-79
2022/11/15 10:25:38;;;;;;;;;2.67;2.67;;;;;13.82;100.00;100077.66;5087638;27;45600;-80
2022/11/15 10:28:27;;;;;;;;;2.00;2.00;;;;;13.82;100.00;100072.34;5055000;28;45771;-79
2022/11/15 10:30:54;;;;;;;;;1.33;1.33;;;;;13.84;100.00;100073.19;5052886;28;45548;-79
2022/11/15 10:33:29;;;;;;;;;4.67;2.00;;;;;13.86;100.00;100071.41;5090662;27;45498;-79
2022/11/15 10:36:12;;;;;;;;;1.67;1.67;;;;;13.88;100.00;100070.47;5052847;28;47451;-78
2022/11/15 10:38:50;;;;;;;;;3.00;2.00;;;;;13.92;100.00;100071.31;5072663;27;45437;-79
2022/11/15 10:41:20;;;;;;;;;2.00;2.00;;;;;13.91;100.00;100066.91;5052569;28;45575;-79
2022/11/15 10:44:01;;;;;;;;;2.00;2.00;;;;;13.96;100.00;100058.88;5073127;27;45433;-79
2022/11/15 10:46:26;;;;;;;;;3.33;2.00;;;;;13.97;100.00;100057.97;5073026;28;45442;-78
2022/11/15 10:48:51;;;;;;;;;2.00;2.00;;;;;13.98;100.00;100049.13;5036709;28;69426;-78
2022/11/15 10:51:25;;;;;;;;;2.33;2.33;;;;;13.97;100.00;100042.06;5072989;27;54583;-79
2022/11/15 10:53:51;;;;;;;;;5.33;2.67;;;;;13.98;100.00;100047.34;5043538;28;45540;-80
2022/11/15 10:56:21;;;;;;;;;4.00;2.00;;;;;13.97;100.00;100042.94;5042887;28;64443;-80
2022/11/15 10:58:51;;;;;;;;;2.33;2.33;;;;;13.99;100.00;100024.31;5055017;28;45442;-80
2022/11/15 11:01:29;;;;;;;;;1.00;1.00;;;;;13.98;100.00;100015.47;5051142;28;45612;-80
2022/11/15 11:04:12;;;;;;;;;2.00;2.00;;;;;13.99;100.00;100017.22;5053343;28;45693;-79
2022/11/15 11:06:51;;;;;;;;;2.00;2.00;;;;;14.00;100.00;100005.72;5053409;28;47801;-80
2022/11/15 11:09:36;;;;;;;;;5.00;3.00;;;;;14.02;100.00;100003.06;5065230;27;45468;-79
2022/11/15 11:12:03;;;;;;;;;5.67;3.00;;;;;14.00;100.00;99991.56;5044257;28;45766;-79
2022/11/15 11:14:31;;;;;;;;;3.00;3.00;;;;;14.02;100.00;99997.75;5046422;28;45542;-80
2022/11/15 11:17:21;;;;;;;;;4.33;3.67;;;;;14.02;100.00;99990.66;5040602;28;47577;-80
2022/11/15 11:19:56;;;;;;;;;3.00;3.00;;;;;14.02;100.00;99995.97;5048787;28;46426;-80
2022/11/15 11:23:19;;;;;;;;;4.00;3.00;;;;;14.05;100.00;99995.03;5050757;28;45582;-79
2022/11/15 11:26:09;;;;;;;;;2.33;2.33;;;;;14.04;100.00;99987.97;5021662;28;45591;-80
2022/11/15 11:28:58;;;;;;;;;4.67;3.00;;;;;14.03;100.00;99979.13;5027163;28;45988;-79
2022/11/15 11:31:32;;;;;;;;;3.00;3.00;;;;;14.05;100.00;99972.00;5059701;28;45596;-77
2022/11/15 11:34:16;;;;;;;;;3.00;3.00;;;;;14.05;100.00;99982.63;5076477;27;45604;-78
2022/11/15 11:37:10;;;;;;;;;2.00;2.00;;;;;14.07;100.00;99978.19;5050993;27;45605;-76